sensor_id;sensor_type;location;lat;lon;timestamp;P1;durP1;ratioP1;P2;durP2;ratioP2
55469;SDS011;41334;47.872;16.384;2023-06-22T00:03:27;11.52;;;5.90;;
55469;SDS011;41334;47.872;16.384;2023-06-22T00:08:29;14.15;;;5.95;;
55469;SDS011;41334;47.872;16.384;2023-06-22T00:13:30;15.40;;;5.30;;
55469;SDS011;41334;47.872;16.384;2023-06-22T00:18:32;14.40;;;5.32;;
55469;SDS011;41334;47.872;16.384;2023-06-22T00:23:34;16.58;;;5.70;;
55469;SDS011;41334;47.872;16.384;2023-06-22T00:28:36;9.57;;;5.50;;
55469;SDS011;41334;47.872;16.384;2023-06-22T00:33:37;13.32;;;5.68;;
55469;SDS011;41334;47.872;16.384;2023-06-22T00:38:40;12.55;;;5.60;;
55469;SDS011;41334;47.872;16.384;2023-06-22T00:43:42;12.40;;;5.60;;
55469;SDS011;41334;47.872;16.384;2023-06-22T00:48:44;12.50;;;5.70;;
55469;SDS011;41334;47.872;16.384;2023-06-22T00:53:46;13.63;;;6.40;;
55469;SDS011;41334;47.872;16.384;2023-06-22T00:58:50;14.38;;;5.53;;
55469;SDS011;41334;47.872;16.384;2023-06-22T01:03:54;13.55;;;5.57;;
55469;SDS011;41334;47.872;16.384;2023-06-22T01:09:05;13.43;;;6.00;;
55469;SDS011;41334;47.872;16.384;2023-06-22T01:14:23;18.10;;;6.23;;
55469;SDS011;41334;47.872;16.384;2023-06-22T01:19:43;13.30;;;6.15;;
55469;SDS011;41334;47.872;16.384;2023-06-22T01:24:58;14.07;;;7.00;;
55469;SDS011;41334;47.872;16.384;2023-06-22T01:30:03;12.35;;;5.50;;
55469;SDS011;41334;47.872;16.384;2023-06-22T01:35:09;13.60;;;5.75;;
55469;SDS011;41334;47.872;16.384;2023-06-22T01:40:15;13.00;;;5.50;;
55469;SDS011;41334;47.872;16.384;2023-06-22T01:45:18;12.75;;;6.53;;
55469;SDS011;41334;47.872;16.384;2023-06-22T01:50:20;14.48;;;6.00;;
55469;SDS011;41334;47.872;16.384;2023-06-22T01:55:25;10.73;;;5.60;;
55469;SDS011;41334;47.872;16.384;2023-06-22T02:00:27;19.88;;;5.40;;
55469;SDS011;41334;47.872;16.384;2023-06-22T02:05:34;12.23;;;6.03;;
55469;SDS011;41334;47.872;16.384;2023-06-22T02:10:38;11.70;;;5.43;;
55469;SDS011;41334;47.872;16.384;2023-06-22T02:15:42;12.40;;;5.78;;
55469;SDS011;41334;47.872;16.384;2023-06-22T02:20:46;18.30;;;5.50;;
55469;SDS011;41334;47.872;16.384;2023-06-22T02:25:48;13.00;;;5.55;;
55469;SDS011;41334;47.872;16.384;2023-06-22T02:30:51;12.65;;;5.53;;
55469;SDS011;41334;47.872;16.384;2023-06-22T02:35:53;10.48;;;5.40;;
55469;SDS011;41334;47.872;16.384;2023-06-22T02:40:56;11.52;;;5.65;;
55469;SDS011;41334;47.872;16.384;2023-06-22T02:45:58;15.70;;;5.93;;
55469;SDS011;41334;47.872;16.384;2023-06-22T02:51:00;17.10;;;5.65;;
55469;SDS011;41334;47.872;16.384;2023-06-22T02:56:03;17.55;;;5.78;;
55469;SDS011;41334;47.872;16.384;2023-06-22T03:01:09;20.45;;;6.20;;
55469;SDS011;41334;47.872;16.384;2023-06-22T03:06:18;15.43;;;5.75;;
55469;SDS011;41334;47.872;16.384;2023-06-22T03:11:25;17.05;;;5.20;;
55469;SDS011;41334;47.872;16.384;2023-06-22T03:16:29;18.13;;;6.60;;
55469;SDS011;41334;47.872;16.384;2023-06-22T03:21:32;16.38;;;5.57;;
55469;SDS011;41334;47.872;16.384;2023-06-22T03:26:34;20.45;;;6.18;;
55469;SDS011;41334;47.872;16.384;2023-06-22T03:31:36;13.13;;;6.25;;
55469;SDS011;41334;47.872;16.384;2023-06-22T03:36:40;13.90;;;6.38;;
55469;SDS011;41334;47.872;16.384;2023-06-22T03:41:44;14.20;;;5.55;;
55469;SDS011;41334;47.872;16.384;2023-06-22T03:46:46;25.88;;;7.25;;
55469;SDS011;41334;47.872;16.384;2023-06-22T03:51:48;14.25;;;6.28;;
55469;SDS011;41334;47.872;16.384;2023-06-22T03:56:49;12.65;;;6.18;;
55469;SDS011;41334;47.872;16.384;2023-06-22T04:01:51;11.57;;;5.07;;
55469;SDS011;41334;47.872;16.384;2023-06-22T04:06:55;15.30;;;5.38;;
55469;SDS011;41334;47.872;16.384;2023-06-22T04:11:56;13.77;;;5.53;;
55469;SDS011;41334;47.872;16.384;2023-06-22T04:16:59;20.55;;;5.78;;
55469;SDS011;41334;47.872;16.384;2023-06-22T04:22:01;14.88;;;5.90;;
55469;SDS011;41334;47.872;16.384;2023-06-22T04:27:03;16.98;;;6.22;;
55469;SDS011;41334;47.872;16.384;2023-06-22T04:32:05;10.57;;;5.72;;
55469;SDS011;41334;47.872;16.384;2023-06-22T04:37:08;17.45;;;5.80;;
55469;SDS011;41334;47.872;16.384;2023-06-22T04:42:11;15.30;;;4.90;;
55469;SDS011;41334;47.872;16.384;2023-06-22T04:47:16;13.75;;;5.70;;
55469;SDS011;41334;47.872;16.384;2023-06-22T04:52:19;12.82;;;5.78;;
55469;SDS011;41334;47.872;16.384;2023-06-22T04:57:22;10.25;;;5.18;;
55469;SDS011;41334;47.872;16.384;2023-06-22T05:07:34;12.32;;;6.15;;
55469;SDS011;41334;47.872;16.384;2023-06-22T05:12:36;12.52;;;5.22;;
55469;SDS011;41334;47.872;16.384;2023-06-22T05:17:40;11.95;;;5.35;;
55469;SDS011;41334;47.872;16.384;2023-06-22T05:22:44;9.38;;;4.65;;
55469;SDS011;41334;47.872;16.384;2023-06-22T05:27:46;8.20;;;4.75;;
55469;SDS011;41334;47.872;16.384;2023-06-22T05:32:48;13.27;;;5.05;;
55469;SDS011;41334;47.872;16.384;2023-06-22T05:37:50;11.00;;;5.07;;
55469;SDS011;41334;47.872;16.384;2023-06-22T05:42:52;8.55;;;4.65;;
55469;SDS011;41334;47.872;16.384;2023-06-22T05:47:54;10.05;;;5.47;;
55469;SDS011;41334;47.872;16.384;2023-06-22T05:52:56;13.27;;;4.43;;
55469;SDS011;41334;47.872;16.384;2023-06-22T05:57:58;11.18;;;4.78;;
55469;SDS011;41334;47.872;16.384;2023-06-22T06:03:02;10.63;;;4.38;;
55469;SDS011;41334;47.872;16.384;2023-06-22T06:08:07;11.65;;;4.90;;
55469;SDS011;41334;47.872;16.384;2023-06-22T06:13:09;10.55;;;5.78;;
55469;SDS011;41334;47.872;16.384;2023-06-22T06:18:11;13.10;;;5.47;;
55469;SDS011;41334;47.872;16.384;2023-06-22T06:23:13;11.00;;;5.32;;
55469;SDS011;41334;47.872;16.384;2023-06-22T06:28:15;13.55;;;5.88;;
55469;SDS011;41334;47.872;16.384;2023-06-22T06:33:18;11.38;;;6.22;;
55469;SDS011;41334;47.872;16.384;2023-06-22T06:38:20;15.35;;;5.72;;
55469;SDS011;41334;47.872;16.384;2023-06-22T06:43:22;11.20;;;5.78;;
55469;SDS011;41334;47.872;16.384;2023-06-22T06:48:25;14.13;;;5.00;;
55469;SDS011;41334;47.872;16.384;2023-06-22T06:53:27;11.48;;;5.15;;
55469;SDS011;41334;47.872;16.384;2023-06-22T06:58:30;12.02;;;5.18;;
55469;SDS011;41334;47.872;16.384;2023-06-22T07:03:32;12.48;;;4.75;;
55469;SDS011;41334;47.872;16.384;2023-06-22T07:08:35;6.25;;;3.55;;
55469;SDS011;41334;47.872;16.384;2023-06-22T07:13:38;7.88;;;4.28;;
55469;SDS011;41334;47.872;16.384;2023-06-22T07:18:40;8.00;;;4.15;;
55469;SDS011;41334;47.872;16.384;2023-06-22T07:23:42;8.40;;;3.50;;
55469;SDS011;41334;47.872;16.384;2023-06-22T07:28:43;8.15;;;3.83;;
55469;SDS011;41334;47.872;16.384;2023-06-22T07:33:45;8.68;;;3.25;;
55469;SDS011;41334;47.872;16.384;2023-06-22T07:38:47;11.00;;;3.47;;
55469;SDS011;41334;47.872;16.384;2023-06-22T07:43:49;5.93;;;3.00;;
55469;SDS011;41334;47.872;16.384;2023-06-22T07:48:51;6.15;;;2.58;;
55469;SDS011;41334;47.872;16.384;2023-06-22T07:53:57;10.23;;;2.67;;
55469;SDS011;41334;47.872;16.384;2023-06-22T07:58:58;6.10;;;2.80;;
55469;SDS011;41334;47.872;16.384;2023-06-22T08:04:02;10.55;;;2.92;;
55469;SDS011;41334;47.872;16.384;2023-06-22T08:09:04;7.18;;;2.90;;
55469;SDS011;41334;47.872;16.384;2023-06-22T08:14:09;6.68;;;3.42;;
55469;SDS011;41334;47.872;16.384;2023-06-22T08:19:11;7.18;;;3.30;;
55469;SDS011;41334;47.872;16.384;2023-06-22T08:24:13;6.85;;;3.00;;
55469;SDS011;41334;47.872;16.384;2023-06-22T08:29:14;7.50;;;3.05;;
55469;SDS011;41334;47.872;16.384;2023-06-22T08:34:16;6.25;;;2.75;;
55469;SDS011;41334;47.872;16.384;2023-06-22T08:39:22;8.90;;;2.70;;
55469;SDS011;41334;47.872;16.384;2023-06-22T08:44:25;9.70;;;2.55;;
55469;SDS011;41334;47.872;16.384;2023-06-22T08:49:26;5.78;;;2.25;;
55469;SDS011;41334;47.872;16.384;2023-06-22T08:54:28;6.95;;;2.45;;
55469;SDS011;41334;47.872;16.384;2023-06-22T08:59:30;9.25;;;2.10;;
55469;SDS011;41334;47.872;16.384;2023-06-22T09:04:32;9.98;;;2.20;;
55469;SDS011;41334;47.872;16.384;2023-06-22T09:09:36;6.38;;;2.50;;
55469;SDS011;41334;47.872;16.384;2023-06-22T09:14:38;6.68;;;2.22;;
55469;SDS011;41334;47.872;16.384;2023-06-22T09:19:39;4.50;;;1.80;;
55469;SDS011;41334;47.872;16.384;2023-06-22T09:24:41;6.53;;;2.60;;
55469;SDS011;41334;47.872;16.384;2023-06-22T09:29:43;4.25;;;1.92;;
55469;SDS011;41334;47.872;16.384;2023-06-22T09:34:46;6.00;;;2.05;;
55469;SDS011;41334;47.872;16.384;2023-06-22T09:39:48;4.45;;;1.60;;
55469;SDS011;41334;47.872;16.384;2023-06-22T09:44:50;6.47;;;1.73;;
55469;SDS011;41334;47.872;16.384;2023-06-22T09:49:51;4.57;;;2.10;;
55469;SDS011;41334;47.872;16.384;2023-06-22T09:54:53;7.82;;;1.75;;
55469;SDS011;41334;47.872;16.384;2023-06-22T09:59:56;5.85;;;1.85;;
55469;SDS011;41334;47.872;16.384;2023-06-22T10:04:58;6.75;;;1.88;;
55469;SDS011;41334;47.872;16.384;2023-06-22T10:10:00;4.70;;;1.63;;
55469;SDS011;41334;47.872;16.384;2023-06-22T10:15:02;5.07;;;2.10;;
55469;SDS011;41334;47.872;16.384;2023-06-22T10:20:05;6.18;;;2.08;;
55469;SDS011;41334;47.872;16.384;2023-06-22T10:25:15;6.88;;;1.95;;
55469;SDS011;41334;47.872;16.384;2023-06-22T10:30:17;5.13;;;2.28;;
55469;SDS011;41334;47.872;16.384;2023-06-22T10:35:19;5.55;;;2.20;;
55469;SDS011;41334;47.872;16.384;2023-06-22T10:40:21;9.38;;;2.40;;
55469;SDS011;41334;47.872;16.384;2023-06-22T10:45:23;5.13;;;2.20;;
55469;SDS011;41334;47.872;16.384;2023-06-22T10:50:26;5.55;;;2.53;;
55469;SDS011;41334;47.872;16.384;2023-06-22T10:55:28;5.40;;;2.25;;
55469;SDS011;41334;47.872;16.384;2023-06-22T11:00:59;5.70;;;2.30;;
55469;SDS011;41334;47.872;16.384;2023-06-22T11:06:00;6.13;;;2.58;;
55469;SDS011;41334;47.872;16.384;2023-06-22T11:11:02;5.65;;;2.75;;
55469;SDS011;41334;47.872;16.384;2023-06-22T11:16:04;7.60;;;2.33;;
55469;SDS011;41334;47.872;16.384;2023-06-22T11:21:06;5.75;;;2.80;;
55469;SDS011;41334;47.872;16.384;2023-06-22T11:26:08;5.30;;;2.67;;
55469;SDS011;41334;47.872;16.384;2023-06-22T11:31:31;5.72;;;2.35;;
55469;SDS011;41334;47.872;16.384;2023-06-22T11:36:33;8.13;;;2.90;;
55469;SDS011;41334;47.872;16.384;2023-06-22T11:41:36;6.75;;;2.90;;
55469;SDS011;41334;47.872;16.384;2023-06-22T11:46:38;4.78;;;2.42;;
55469;SDS011;41334;47.872;16.384;2023-06-22T11:51:40;8.93;;;2.92;;
55469;SDS011;41334;47.872;16.384;2023-06-22T11:56:41;8.15;;;2.50;;
55469;SDS011;41334;47.872;16.384;2023-06-22T12:01:43;9.32;;;3.03;;
55469;SDS011;41334;47.872;16.384;2023-06-22T12:06:45;8.38;;;3.30;;
55469;SDS011;41334;47.872;16.384;2023-06-22T12:11:46;5.47;;;3.05;;
55469;SDS011;41334;47.872;16.384;2023-06-22T12:16:48;7.28;;;3.13;;
55469;SDS011;41334;47.872;16.384;2023-06-22T12:21:50;7.82;;;2.90;;
55469;SDS011;41334;47.872;16.384;2023-06-22T12:26:52;10.75;;;2.60;;
55469;SDS011;41334;47.872;16.384;2023-06-22T12:31:56;6.85;;;3.33;;
55469;SDS011;41334;47.872;16.384;2023-06-22T12:36:58;8.82;;;2.83;;
55469;SDS011;41334;47.872;16.384;2023-06-22T12:42:00;8.77;;;3.28;;
55469;SDS011;41334;47.872;16.384;2023-06-22T12:47:03;5.93;;;3.20;;
55469;SDS011;41334;47.872;16.384;2023-06-22T12:52:10;10.77;;;3.65;;
55469;SDS011;41334;47.872;16.384;2023-06-22T12:57:12;9.38;;;3.45;;
55469;SDS011;41334;47.872;16.384;2023-06-22T13:02:14;8.40;;;3.97;;
55469;SDS011;41334;47.872;16.384;2023-06-22T13:07:21;5.65;;;3.35;;
55469;SDS011;41334;47.872;16.384;2023-06-22T13:12:24;9.10;;;3.60;;
55469;SDS011;41334;47.872;16.384;2023-06-22T13:17:26;10.30;;;4.20;;
55469;SDS011;41334;47.872;16.384;2023-06-22T13:22:30;11.02;;;5.20;;
55469;SDS011;41334;47.872;16.384;2023-06-22T13:27:32;5.93;;;3.60;;
55469;SDS011;41334;47.872;16.384;2023-06-22T13:32:34;8.60;;;3.72;;
55469;SDS011;41334;47.872;16.384;2023-06-22T13:37:36;8.48;;;4.07;;
55469;SDS011;41334;47.872;16.384;2023-06-22T13:42:38;7.85;;;3.88;;
55469;SDS011;41334;47.872;16.384;2023-06-22T13:47:40;9.02;;;3.72;;
55469;SDS011;41334;47.872;16.384;2023-06-22T13:52:42;8.10;;;3.95;;
55469;SDS011;41334;47.872;16.384;2023-06-22T13:57:44;7.22;;;3.75;;
55469;SDS011;41334;47.872;16.384;2023-06-22T14:02:47;10.25;;;3.70;;
55469;SDS011;41334;47.872;16.384;2023-06-22T14:07:50;7.28;;;4.40;;
55469;SDS011;41334;47.872;16.384;2023-06-22T14:12:51;8.18;;;4.00;;
55469;SDS011;41334;47.872;16.384;2023-06-22T14:17:57;5.63;;;3.88;;
55469;SDS011;41334;47.872;16.384;2023-06-22T14:22:59;10.25;;;3.90;;
55469;SDS011;41334;47.872;16.384;2023-06-22T14:28:00;9.15;;;4.03;;
55469;SDS011;41334;47.872;16.384;2023-06-22T14:33:02;8.80;;;4.65;;
55469;SDS011;41334;47.872;16.384;2023-06-22T14:38:04;11.13;;;4.50;;
55469;SDS011;41334;47.872;16.384;2023-06-22T14:43:06;6.82;;;4.28;;
55469;SDS011;41334;47.872;16.384;2023-06-22T14:48:07;12.55;;;5.15;;
55469;SDS011;41334;47.872;16.384;2023-06-22T14:53:09;7.63;;;3.80;;
55469;SDS011;41334;47.872;16.384;2023-06-22T14:58:11;10.68;;;4.22;;
55469;SDS011;41334;47.872;16.384;2023-06-22T15:03:13;8.80;;;4.45;;
55469;SDS011;41334;47.872;16.384;2023-06-22T15:08:19;9.60;;;4.72;;
55469;SDS011;41334;47.872;16.384;2023-06-22T15:13:22;7.78;;;4.10;;
55469;SDS011;41334;47.872;16.384;2023-06-22T15:18:24;7.68;;;4.57;;
55469;SDS011;41334;47.872;16.384;2023-06-22T15:23:26;13.73;;;4.30;;
55469;SDS011;41334;47.872;16.384;2023-06-22T15:28:29;12.15;;;4.85;;
55469;SDS011;41334;47.872;16.384;2023-06-22T15:33:31;9.43;;;4.88;;
55469;SDS011;41334;47.872;16.384;2023-06-22T15:38:34;7.22;;;4.55;;
55469;SDS011;41334;47.872;16.384;2023-06-22T15:43:35;11.98;;;4.70;;
55469;SDS011;41334;47.872;16.384;2023-06-22T15:48:37;8.00;;;5.25;;
55469;SDS011;41334;47.872;16.384;2023-06-22T15:53:42;11.48;;;4.85;;
55469;SDS011;41334;47.872;16.384;2023-06-22T15:58:43;7.95;;;4.95;;
55469;SDS011;41334;47.872;16.384;2023-06-22T16:03:46;9.18;;;5.03;;
55469;SDS011;41334;47.872;16.384;2023-06-22T16:08:48;8.05;;;5.07;;
55469;SDS011;41334;47.872;16.384;2023-06-22T16:13:49;9.20;;;5.07;;
55469;SDS011;41334;47.872;16.384;2023-06-22T16:18:51;12.65;;;4.30;;
55469;SDS011;41334;47.872;16.384;2023-06-22T16:23:53;13.30;;;4.55;;
55469;SDS011;41334;47.872;16.384;2023-06-22T16:28:55;12.02;;;5.07;;
55469;SDS011;41334;47.872;16.384;2023-06-22T16:33:56;8.00;;;5.20;;
55469;SDS011;41334;47.872;16.384;2023-06-22T16:38:58;7.90;;;4.72;;
55469;SDS011;41334;47.872;16.384;2023-06-22T16:44:00;8.35;;;4.97;;
55469;SDS011;41334;47.872;16.384;2023-06-22T16:49:06;15.07;;;5.25;;
55469;SDS011;41334;47.872;16.384;2023-06-22T16:54:08;8.30;;;4.57;;
55469;SDS011;41334;47.872;16.384;2023-06-22T16:59:10;7.93;;;5.20;;
55469;SDS011;41334;47.872;16.384;2023-06-22T17:04:15;12.63;;;4.30;;
55469;SDS011;41334;47.872;16.384;2023-06-22T17:09:18;8.05;;;5.10;;
55469;SDS011;41334;47.872;16.384;2023-06-22T17:14:20;9.65;;;5.57;;
55469;SDS011;41334;47.872;16.384;2023-06-22T17:19:23;11.80;;;5.57;;
55469;SDS011;41334;47.872;16.384;2023-06-22T17:24:25;7.00;;;4.93;;
55469;SDS011;41334;47.872;16.384;2023-06-22T17:29:30;9.57;;;5.50;;
55469;SDS011;41334;47.872;16.384;2023-06-22T17:34:36;11.93;;;5.30;;
55469;SDS011;41334;47.872;16.384;2023-06-22T17:39:37;10.80;;;4.93;;
55469;SDS011;41334;47.872;16.384;2023-06-22T17:44:40;17.20;;;5.93;;
55469;SDS011;41334;47.872;16.384;2023-06-22T17:49:43;5.68;;;4.90;;
55469;SDS011;41334;47.872;16.384;2023-06-22T17:54:44;9.30;;;5.13;;
55469;SDS011;41334;47.872;16.384;2023-06-22T18:00:06;11.57;;;5.65;;
55469;SDS011;41334;47.872;16.384;2023-06-22T18:05:14;8.48;;;5.35;;
55469;SDS011;41334;47.872;16.384;2023-06-22T18:10:16;8.07;;;5.10;;
55469;SDS011;41334;47.872;16.384;2023-06-22T18:15:18;13.18;;;6.25;;
55469;SDS011;41334;47.872;16.384;2023-06-22T18:20:20;13.63;;;5.43;;
55469;SDS011;41334;47.872;16.384;2023-06-22T18:25:22;10.85;;;5.75;;
55469;SDS011;41334;47.872;16.384;2023-06-22T18:30:24;12.40;;;5.63;;
55469;SDS011;41334;47.872;16.384;2023-06-22T18:35:27;11.20;;;5.40;;
55469;SDS011;41334;47.872;16.384;2023-06-22T18:40:30;13.32;;;6.22;;
55469;SDS011;41334;47.872;16.384;2023-06-22T18:45:32;13.98;;;5.38;;
55469;SDS011;41334;47.872;16.384;2023-06-22T18:50:44;12.32;;;6.07;;
55469;SDS011;41334;47.872;16.384;2023-06-22T18:55:49;9.07;;;5.57;;
55469;SDS011;41334;47.872;16.384;2023-06-22T19:01:14;10.70;;;6.35;;
55469;SDS011;41334;47.872;16.384;2023-06-22T19:11:37;9.57;;;5.88;;
55469;SDS011;41334;47.872;16.384;2023-06-22T19:16:39;13.07;;;6.20;;
55469;SDS011;41334;47.872;16.384;2023-06-22T19:21:41;15.68;;;6.28;;
55469;SDS011;41334;47.872;16.384;2023-06-22T19:26:50;9.57;;;5.68;;
55469;SDS011;41334;47.872;16.384;2023-06-22T19:31:52;12.63;;;5.82;;
55469;SDS011;41334;47.872;16.384;2023-06-22T19:36:55;10.13;;;5.88;;
55469;SDS011;41334;47.872;16.384;2023-06-22T19:42:00;12.45;;;5.80;;
55469;SDS011;41334;47.872;16.384;2023-06-22T19:47:02;9.80;;;5.53;;
55469;SDS011;41334;47.872;16.384;2023-06-22T19:52:05;13.48;;;6.50;;
55469;SDS011;41334;47.872;16.384;2023-06-22T19:57:07;13.13;;;6.75;;
55469;SDS011;41334;47.872;16.384;2023-06-22T20:02:08;17.52;;;6.53;;
55469;SDS011;41334;47.872;16.384;2023-06-22T20:07:11;13.63;;;6.40;;
55469;SDS011;41334;47.872;16.384;2023-06-22T20:12:24;12.90;;;6.80;;
55469;SDS011;41334;47.872;16.384;2023-06-22T20:17:34;13.02;;;7.38;;
55469;SDS011;41334;47.872;16.384;2023-06-22T20:22:41;9.15;;;6.30;;
55469;SDS011;41334;47.872;16.384;2023-06-22T20:27:43;14.18;;;6.65;;
55469;SDS011;41334;47.872;16.384;2023-06-22T20:32:52;8.05;;;5.50;;
55469;SDS011;41334;47.872;16.384;2023-06-22T20:37:54;9.70;;;6.60;;
55469;SDS011;41334;47.872;16.384;2023-06-22T20:43:01;17.20;;;7.05;;
55469;SDS011;41334;47.872;16.384;2023-06-22T20:48:03;10.07;;;6.55;;
55469;SDS011;41334;47.872;16.384;2023-06-22T20:53:06;15.15;;;7.10;;
55469;SDS011;41334;47.872;16.384;2023-06-22T20:58:08;17.25;;;6.75;;
55469;SDS011;41334;47.872;16.384;2023-06-22T21:03:11;8.80;;;6.72;;
55469;SDS011;41334;47.872;16.384;2023-06-22T21:08:13;10.88;;;6.82;;
55469;SDS011;41334;47.872;16.384;2023-06-22T21:13:15;8.18;;;6.15;;
55469;SDS011;41334;47.872;16.384;2023-06-22T21:18:17;10.18;;;6.63;;
55469;SDS011;41334;47.872;16.384;2023-06-22T21:23:18;9.25;;;6.00;;
55469;SDS011;41334;47.872;16.384;2023-06-22T21:28:22;16.02;;;6.20;;
55469;SDS011;41334;47.872;16.384;2023-06-22T21:33:23;15.93;;;6.57;;
55469;SDS011;41334;47.872;16.384;2023-06-22T21:38:26;13.15;;;7.32;;
55469;SDS011;41334;47.872;16.384;2023-06-22T21:43:27;12.82;;;7.28;;
55469;SDS011;41334;47.872;16.384;2023-06-22T21:48:29;10.45;;;7.13;;
55469;SDS011;41334;47.872;16.384;2023-06-22T21:53:31;15.18;;;7.60;;
55469;SDS011;41334;47.872;16.384;2023-06-22T21:58:33;10.43;;;6.32;;
55469;SDS011;41334;47.872;16.384;2023-06-22T22:03:36;11.23;;;5.75;;
55469;SDS011;41334;47.872;16.384;2023-06-22T22:08:38;10.77;;;6.55;;
55469;SDS011;41334;47.872;16.384;2023-06-22T22:13:39;12.07;;;6.75;;
55469;SDS011;41334;47.872;16.384;2023-06-22T22:18:42;13.73;;;6.72;;
55469;SDS011;41334;47.872;16.384;2023-06-22T22:23:44;10.10;;;6.20;;
55469;SDS011;41334;47.872;16.384;2023-06-22T22:28:46;11.07;;;7.63;;
55469;SDS011;41334;47.872;16.384;2023-06-22T22:33:48;13.85;;;6.65;;
55469;SDS011;41334;47.872;16.384;2023-06-22T22:38:50;9.48;;;7.20;;
55469;SDS011;41334;47.872;16.384;2023-06-22T22:43:51;14.88;;;6.35;;
55469;SDS011;41334;47.872;16.384;2023-06-22T22:48:53;11.15;;;6.50;;
55469;SDS011;41334;47.872;16.384;2023-06-22T22:53:55;10.82;;;6.68;;
55469;SDS011;41334;47.872;16.384;2023-06-22T22:58:57;14.10;;;6.65;;
55469;SDS011;41334;47.872;16.384;2023-06-22T23:03:59;9.30;;;6.45;;
55469;SDS011;41334;47.872;16.384;2023-06-22T23:09:01;13.00;;;5.82;;
55469;SDS011;41334;47.872;16.384;2023-06-22T23:14:03;16.75;;;7.05;;
55469;SDS011;41334;47.872;16.384;2023-06-22T23:19:05;10.68;;;6.38;;
55469;SDS011;41334;47.872;16.384;2023-06-22T23:24:06;12.07;;;6.38;;
55469;SDS011;41334;47.872;16.384;2023-06-22T23:29:10;15.13;;;7.20;;
55469;SDS011;41334;47.872;16.384;2023-06-22T23:34:11;10.68;;;6.95;;
55469;SDS011;41334;47.872;16.384;2023-06-22T23:39:13;14.13;;;5.78;;
55469;SDS011;41334;47.872;16.384;2023-06-22T23:44:15;9.70;;;6.82;;
55469;SDS011;41334;47.872;16.384;2023-06-22T23:49:17;11.07;;;6.47;;
55469;SDS011;41334;47.872;16.384;2023-06-22T23:54:19;19.33;;;6.90;;
55469;SDS011;41334;47.872;16.384;2023-06-22T23:59:20;11.48;;;6.38;;
